createdAt,value
2022-11-30T00:01:20.304Z,45.50
2022-11-30T00:03:48.513Z,42.97
2022-11-30T00:06:22.884Z,43.93
2022-11-30T00:08:54.034Z,42.40
2022-11-30T00:11:22.630Z,46.60
2022-11-30T00:13:50.418Z,39.37
2022-11-30T00:16:17.701Z,42.83
2022-11-30T00:18:45.131Z,43.57
2022-11-30T00:21:13.958Z,41.13
2022-11-30T00:23:43.192Z,44.60
2022-11-30T00:26:12.609Z,42.20
2022-11-30T00:28:40.386Z,42.00
2022-11-30T00:31:11.722Z,43.47
2022-11-30T00:33:39.305Z,42.70
2022-11-30T00:36:15.543Z,43.30
2022-11-30T00:38:43.696Z,42.27
2022-11-30T00:41:11.647Z,44.00
2022-11-30T00:43:38.962Z,43.17
2022-11-30T00:46:06.776Z,43.53
2022-11-30T00:48:34.139Z,43.10
2022-11-30T00:51:01.585Z,45.33
2022-11-30T00:53:29.026Z,37.43
2022-11-30T00:55:56.213Z,39.90
2022-11-30T00:58:23.448Z,38.83
2022-11-30T01:00:50.653Z,40.80
2022-11-30T01:03:18.066Z,40.30
2022-11-30T01:05:45.204Z,37.83
2022-11-30T01:08:12.973Z,35.30
2022-11-30T01:10:42.364Z,36.13
2022-11-30T01:13:11.942Z,36.47
2022-11-30T01:15:43.295Z,36.37
2022-11-30T01:18:10.749Z,37.10
2022-11-30T01:20:42.389Z,40.37
2022-11-30T01:23:10.322Z,38.60
2022-11-30T01:25:38.100Z,39.53
2022-11-30T01:28:05.735Z,39.53
2022-11-30T01:30:32.992Z,38.10
2022-11-30T01:33:05.578Z,42.00
2022-11-30T01:35:32.922Z,40.20
2022-11-30T01:38:00.314Z,38.27
2022-11-30T01:40:27.618Z,36.57
2022-11-30T01:42:54.811Z,36.90
2022-11-30T01:45:22.433Z,40.50
2022-11-30T01:47:54.662Z,37.90
2022-11-30T01:50:29.420Z,37.00
2022-11-30T01:52:57.792Z,39.30
2022-11-30T01:55:32.301Z,37.17
2022-11-30T01:58:06.783Z,38.63
2022-11-30T02:00:34.177Z,36.30
2022-11-30T02:03:28.706Z,37.40
2022-11-30T02:05:56.550Z,35.23
2022-11-30T02:08:23.889Z,37.37
2022-11-30T02:10:58.359Z,38.07
2022-11-30T02:14:01.665Z,37.30
2022-11-30T02:17:00.495Z,38.50
2022-11-30T02:19:45.927Z,36.43
2022-11-30T02:22:19.162Z,36.03
2022-11-30T02:25:03.557Z,37.07
2022-11-30T02:28:07.053Z,34.70
2022-11-30T02:30:36.017Z,37.77
2022-11-30T02:33:10.284Z,34.37
2022-11-30T02:35:42.682Z,37.97
2022-11-30T02:38:11.609Z,37.00
2022-11-30T02:40:38.801Z,36.73
2022-11-30T02:43:06.909Z,35.87
2022-11-30T02:45:49.404Z,36.20
2022-11-30T02:48:20.975Z,36.57
2022-11-30T02:50:56.421Z,36.27
2022-11-30T02:53:23.795Z,37.93
2022-11-30T02:55:51.196Z,32.53
2022-11-30T02:58:18.465Z,34.20
2022-11-30T03:00:45.709Z,34.27
2022-11-30T03:03:12.924Z,37.23
2022-11-30T03:05:40.127Z,33.97
2022-11-30T03:08:07.309Z,35.40
2022-11-30T03:10:34.462Z,34.43
2022-11-30T03:13:01.693Z,34.47
2022-11-30T03:15:28.845Z,35.43
2022-11-30T03:17:56.033Z,36.93
2022-11-30T03:20:23.273Z,36.70
2022-11-30T03:22:50.444Z,35.50
2022-11-30T03:25:18.143Z,33.73
2022-11-30T03:27:45.690Z,33.87
2022-11-30T03:30:13.133Z,36.07
2022-11-30T03:32:40.428Z,32.10
2022-11-30T03:35:08.030Z,37.13
2022-11-30T03:37:35.183Z,35.70
2022-11-30T03:40:02.416Z,34.03
2022-11-30T03:42:29.565Z,33.93
2022-11-30T03:44:56.731Z,34.93
2022-11-30T03:47:23.869Z,33.07
2022-11-30T03:49:52.220Z,33.00
2022-11-30T03:52:19.369Z,34.57
2022-11-30T03:54:47.118Z,35.83
2022-11-30T03:57:14.714Z,34.60
2022-11-30T03:59:41.877Z,35.37
2022-11-30T04:02:09.429Z,32.87
2022-11-30T04:04:36.617Z,34.23
2022-11-30T04:07:03.750Z,36.20
2022-11-30T04:09:31.776Z,36.10
2022-11-30T04:11:59.376Z,35.50
2022-11-30T04:14:26.586Z,35.87
2022-11-30T04:16:53.739Z,35.77
2022-11-30T04:19:20.944Z,35.10
2022-11-30T04:21:48.152Z,35.53
2022-11-30T04:24:15.284Z,36.80
2022-11-30T04:26:43.050Z,37.07
2022-11-30T04:29:10.190Z,38.30
2022-11-30T04:31:37.725Z,37.60
2022-11-30T04:34:04.920Z,35.40
2022-11-30T04:36:32.063Z,36.00
2022-11-30T04:38:59.233Z,35.63
2022-11-30T04:41:26.423Z,33.17
2022-11-30T04:43:53.603Z,37.37
2022-11-30T04:46:21.210Z,37.33
2022-11-30T04:48:48.393Z,35.67
2022-11-30T04:51:15.561Z,36.00
2022-11-30T04:53:42.712Z,36.60
2022-11-30T04:56:11.993Z,38.63
2022-11-30T04:58:39.788Z,32.63
2022-11-30T05:01:07.577Z,34.87
2022-11-30T05:03:35.201Z,35.80
2022-11-30T05:06:03.661Z,35.23
2022-11-30T05:08:30.955Z,36.97
2022-11-30T05:10:58.607Z,35.90
2022-11-30T05:13:26.658Z,36.43
2022-11-30T05:15:54.205Z,36.50
2022-11-30T05:18:22.237Z,37.00
2022-11-30T05:20:51.270Z,31.27
2022-11-30T05:23:19.590Z,36.23
2022-11-30T05:25:47.026Z,34.53
2022-11-30T05:28:14.309Z,32.87
2022-11-30T05:30:42.852Z,34.77
2022-11-30T05:33:10.804Z,33.93
2022-11-30T05:35:38.471Z,34.80
2022-11-30T05:38:05.961Z,34.80
2022-11-30T05:40:33.562Z,33.50
2022-11-30T05:43:02.403Z,33.87
2022-11-30T05:45:30.862Z,33.80
2022-11-30T05:47:58.121Z,32.70
2022-11-30T05:50:25.307Z,35.77
2022-11-30T05:52:57.845Z,32.90
2022-11-30T05:55:25.233Z,31.60
2022-11-30T05:57:52.618Z,32.80
2022-11-30T06:00:20.983Z,33.17
2022-11-30T06:02:48.289Z,34.60
2022-11-30T06:05:15.910Z,32.03
2022-11-30T06:07:43.177Z,33.63
2022-11-30T06:10:10.934Z,31.30
2022-11-30T06:12:38.103Z,35.37
2022-11-30T06:15:05.787Z,33.70
2022-11-30T06:17:33.185Z,34.90
2022-11-30T06:20:00.337Z,33.60
2022-11-30T06:22:27.522Z,31.27
2022-11-30T06:24:54.749Z,30.90
2022-11-30T06:27:21.906Z,32.80
2022-11-30T06:29:49.088Z,34.47
2022-11-30T06:32:16.268Z,33.43
2022-11-30T06:34:43.416Z,31.53
2022-11-30T06:37:10.604Z,26.60
2022-11-30T06:40:04.939Z,31.60
2022-11-30T06:42:25.212Z,32.40
2022-11-30T06:44:52.356Z,31.80
2022-11-30T06:47:19.575Z,31.17
2022-11-30T06:49:46.767Z,30.93
2022-11-30T06:52:14.236Z,29.77
2022-11-30T06:54:42.718Z,29.80
2022-11-30T06:57:09.914Z,29.57
2022-11-30T06:59:37.447Z,33.10
2022-11-30T07:02:09.655Z,31.13
2022-11-30T07:04:39.495Z,31.97
2022-11-30T07:07:07.516Z,30.10
2022-11-30T07:09:35.425Z,30.37
2022-11-30T07:12:03.214Z,30.03
2022-11-30T07:14:30.936Z,30.40
2022-11-30T07:16:58.274Z,30.03
2022-11-30T07:19:25.451Z,31.27
2022-11-30T07:21:52.579Z,29.97
2022-11-30T07:24:39.381Z,30.77
2022-11-30T07:27:06.573Z,30.43
2022-11-30T07:29:33.712Z,28.00
2022-11-30T07:32:03.545Z,29.53
2022-11-30T07:34:30.719Z,31.67
2022-11-30T07:36:57.999Z,28.50
2022-11-30T07:39:25.150Z,30.90
2022-11-30T07:41:52.309Z,27.87
2022-11-30T07:44:19.479Z,30.00
2022-11-30T07:46:46.716Z,31.50
2022-11-30T07:49:13.993Z,31.60
2022-11-30T07:51:41.198Z,31.00
2022-11-30T07:54:09.087Z,27.97
2022-11-30T07:56:36.557Z,28.13
2022-11-30T07:59:04.095Z,29.03
2022-11-30T08:01:33.234Z,30.83
2022-11-30T08:04:00.676Z,28.23
2022-11-30T08:06:30.203Z,29.03
2022-11-30T08:09:00.362Z,28.90
2022-11-30T08:11:30.965Z,28.73
2022-11-30T08:13:58.571Z,29.37
2022-11-30T08:16:28.833Z,30.60
2022-11-30T08:18:57.362Z,28.87
2022-11-30T08:21:24.755Z,29.20
2022-11-30T08:23:56.323Z,25.83
2022-11-30T08:26:32.097Z,27.73
2022-11-30T08:29:01.094Z,22.50
2022-11-30T08:31:34.920Z,27.13
2022-11-30T08:34:05.942Z,26.90
2022-11-30T08:36:33.942Z,26.90
2022-11-30T08:39:04.209Z,25.77
2022-11-30T08:41:33.152Z,25.07
2022-11-30T08:44:01.239Z,23.13
2022-11-30T08:49:24.560Z,22.03
2022-11-30T08:54:45.212Z,22.70
2022-11-30T08:57:13.029Z,23.50
2022-11-30T08:59:40.677Z,23.10
2022-11-30T09:02:10.662Z,20.80
2022-11-30T09:04:38.267Z,23.23
2022-11-30T09:07:05.607Z,22.43
2022-11-30T09:09:32.843Z,21.50
2022-11-30T09:12:00.080Z,22.43
2022-11-30T09:14:27.661Z,22.00
2022-11-30T09:16:55.150Z,21.30
2022-11-30T09:19:22.754Z,21.77
2022-11-30T09:21:52.184Z,22.50
2022-11-30T09:24:20.919Z,19.00
2022-11-30T09:26:48.208Z,21.17
2022-11-30T09:29:15.385Z,19.03
2022-11-30T09:31:42.605Z,19.70
2022-11-30T09:34:12.005Z,19.90
2022-11-30T09:36:39.722Z,19.40
2022-11-30T09:39:10.419Z,18.57
2022-11-30T09:42:13.696Z,19.63
2022-11-30T09:45:04.313Z,17.97
2022-11-30T09:47:48.237Z,19.50
2022-11-30T09:50:22.525Z,20.13
2022-11-30T09:52:54.422Z,19.77
2022-11-30T09:55:30.001Z,19.47
2022-11-30T09:58:02.757Z,22.53
2022-11-30T10:00:31.005Z,22.30
2022-11-30T10:03:01.878Z,21.60
2022-11-30T10:06:05.563Z,19.87
2022-11-30T10:09:03.668Z,19.30
2022-11-30T10:11:50.910Z,22.10
2022-11-30T10:14:47.613Z,18.50
2022-11-30T10:17:40.194Z,19.20
2022-11-30T10:20:19.200Z,19.70
2022-11-30T10:23:02.878Z,19.60
2022-11-30T10:25:55.823Z,19.03
2022-11-30T10:28:52.456Z,19.97
2022-11-30T10:31:32.750Z,18.13
2022-11-30T10:34:17.753Z,18.20
2022-11-30T10:36:58.443Z,18.87
2022-11-30T10:39:32.644Z,18.60
2022-11-30T10:42:21.002Z,19.67
2022-11-30T10:45:04.206Z,17.67
2022-11-30T10:47:36.785Z,20.50
2022-11-30T10:50:07.486Z,19.77
2022-11-30T10:52:51.804Z,19.50
2022-11-30T10:55:25.611Z,19.57
2022-11-30T10:58:05.032Z,20.23
2022-11-30T11:00:32.419Z,18.20
2022-11-30T11:02:59.692Z,20.23
2022-11-30T11:05:29.120Z,17.60
2022-11-30T11:08:07.216Z,18.47
2022-11-30T11:10:42.810Z,18.60
2022-11-30T11:13:36.280Z,18.03
2022-11-30T11:16:05.417Z,19.90
2022-11-30T11:18:34.628Z,19.33
2022-11-30T11:21:09.778Z,20.00
2022-11-30T11:23:41.914Z,21.93
2022-11-30T11:26:27.137Z,19.90
2022-11-30T11:28:56.538Z,19.57
2022-11-30T11:31:35.691Z,20.50
2022-11-30T11:34:04.277Z,20.17
2022-11-30T11:36:34.162Z,21.20
2022-11-30T11:39:01.707Z,22.13
2022-11-30T11:41:34.796Z,22.50
2022-11-30T11:44:08.462Z,20.90
2022-11-30T11:46:52.524Z,21.10
2022-11-30T11:49:27.282Z,21.23
2022-11-30T11:52:06.690Z,20.47
2022-11-30T11:54:48.600Z,21.13
2022-11-30T11:57:19.545Z,24.63
2022-11-30T11:59:53.865Z,23.83
2022-11-30T12:02:46.767Z,22.10
2022-11-30T12:05:43.873Z,24.80
2022-11-30T12:08:30.577Z,23.37
2022-11-30T12:11:14.900Z,25.33
2022-11-30T12:13:44.228Z,25.50
2022-11-30T12:16:32.852Z,27.80
2022-11-30T12:19:23.385Z,25.50
2022-11-30T12:22:14.681Z,25.27
2022-11-30T12:25:17.964Z,24.33
2022-11-30T12:28:16.139Z,27.70
2022-11-30T12:31:02.097Z,24.70
2022-11-30T12:33:34.883Z,23.80
2022-11-30T12:36:19.424Z,26.33
2022-11-30T12:38:59.313Z,25.00
2022-11-30T12:41:46.453Z,24.57
2022-11-30T12:44:42.755Z,26.20
2022-11-30T12:47:37.838Z,25.57
2022-11-30T12:50:08.555Z,25.73
2022-11-30T12:52:57.414Z,24.23
2022-11-30T12:55:39.814Z,25.37
2022-11-30T12:58:17.961Z,24.87
2022-11-30T13:01:12.531Z,23.97
2022-11-30T13:03:48.172Z,24.47
2022-11-30T13:06:37.405Z,24.27
2022-11-30T13:09:13.906Z,24.00
2022-11-30T13:11:45.103Z,25.67
2022-11-30T13:14:26.955Z,24.83
2022-11-30T13:17:03.469Z,25.30
2022-11-30T13:20:00.399Z,23.27
2022-11-30T13:22:56.050Z,25.53
2022-11-30T13:26:10.108Z,23.77
2022-11-30T13:28:57.628Z,26.20
2022-11-30T13:31:46.327Z,24.03
2022-11-30T13:34:29.800Z,23.23
2022-11-30T13:37:21.965Z,25.50
2022-11-30T13:39:55.619Z,23.73
2022-11-30T13:42:48.881Z,24.00
2022-11-30T13:45:28.926Z,24.97
2022-11-30T13:47:57.699Z,26.70
2022-11-30T13:50:33.948Z,24.90
2022-11-30T13:53:04.007Z,25.67
2022-11-30T13:55:55.582Z,22.30
2022-11-30T13:58:23.285Z,24.20
2022-11-30T14:01:24.111Z,26.70
2022-11-30T14:04:19.153Z,27.87
2022-11-30T14:06:50.339Z,25.60
2022-11-30T14:09:40.299Z,25.57
2022-11-30T14:12:37.081Z,24.90
2022-11-30T14:15:31.687Z,26.73
2022-11-30T14:18:00.453Z,25.47
2022-11-30T14:20:37.736Z,27.87
2022-11-30T14:23:11.817Z,27.87
2022-11-30T14:25:46.292Z,27.93
2022-11-30T14:28:17.885Z,27.07
2022-11-30T14:30:45.441Z,28.53
2022-11-30T14:33:50.476Z,29.90
2022-11-30T14:36:19.089Z,28.60
2022-11-30T14:38:49.775Z,32.53
2022-11-30T14:41:22.538Z,28.77
2022-11-30T14:43:59.012Z,28.83
2022-11-30T14:46:27.591Z,28.77
2022-11-30T14:49:05.736Z,32.20
2022-11-30T14:51:33.501Z,29.97
2022-11-30T14:54:30.647Z,30.83
2022-11-30T14:57:08.922Z,31.67
2022-11-30T14:59:47.630Z,29.30
2022-11-30T15:02:22.397Z,30.60
2022-11-30T15:04:51.319Z,31.67
2022-11-30T15:07:19.283Z,30.80
2022-11-30T15:09:51.073Z,31.60
2022-11-30T15:12:24.469Z,29.90
2022-11-30T15:15:16.459Z,32.10
2022-11-30T15:18:06.449Z,33.20
2022-11-30T15:20:43.663Z,32.70
2022-11-30T15:23:15.783Z,33.40
2022-11-30T15:25:54.063Z,35.40
2022-11-30T15:28:43.962Z,32.93
2022-11-30T15:31:14.902Z,33.00
2022-11-30T15:33:45.704Z,36.57
2022-11-30T15:36:28.247Z,33.30
2022-11-30T15:39:02.266Z,34.70
2022-11-30T15:41:29.716Z,33.67
2022-11-30T15:43:57.327Z,33.20
2022-11-30T15:46:46.380Z,34.87
2022-11-30T15:49:17.582Z,31.43
2022-11-30T15:51:47.638Z,36.20
2022-11-30T15:54:15.290Z,33.87
2022-11-30T15:56:56.669Z,38.90
2022-11-30T15:59:27.188Z,40.60
2022-11-30T16:02:06.131Z,33.77
2022-11-30T16:05:14.532Z,33.60
2022-11-30T16:07:53.613Z,36.60
2022-11-30T16:10:24.638Z,36.87
2022-11-30T16:12:53.576Z,35.90
2022-11-30T16:15:24.472Z,37.17
2022-11-30T16:17:53.947Z,37.67
2022-11-30T16:20:21.333Z,35.40
2022-11-30T16:22:49.047Z,35.57
2022-11-30T16:25:19.488Z,36.60
2022-11-30T16:27:47.961Z,36.00
2022-11-30T16:30:25.284Z,32.10
2022-11-30T16:32:52.709Z,34.67
2022-11-30T16:35:35.007Z,37.20
2022-11-30T16:38:02.429Z,36.30
2022-11-30T16:40:35.323Z,34.93
2022-11-30T16:43:05.694Z,32.90
2022-11-30T16:45:37.881Z,36.90
2022-11-30T16:48:05.948Z,33.47
2022-11-30T16:50:34.655Z,30.90
2022-11-30T16:53:02.895Z,34.70
2022-11-30T16:55:37.515Z,34.97
2022-11-30T16:58:04.971Z,33.90
2022-11-30T17:00:32.891Z,36.10
2022-11-30T17:03:08.242Z,33.53
2022-11-30T17:05:36.726Z,32.47
2022-11-30T17:08:04.122Z,34.20
2022-11-30T17:10:31.487Z,36.77
2022-11-30T17:12:58.635Z,33.10
2022-11-30T17:15:25.816Z,33.90
2022-11-30T17:17:53.109Z,32.10
2022-11-30T17:20:20.354Z,33.03
2022-11-30T17:22:47.936Z,34.97
2022-11-30T17:25:18.307Z,34.40
2022-11-30T17:27:46.120Z,37.27
2022-11-30T17:30:15.169Z,33.10
2022-11-30T17:32:42.385Z,34.07
2022-11-30T17:35:10.159Z,34.50
2022-11-30T17:37:37.416Z,40.20
2022-11-30T17:40:06.933Z,38.03
2022-11-30T17:42:35.411Z,35.90
2022-11-30T17:45:02.827Z,34.43
2022-11-30T17:47:31.034Z,35.83
2022-11-30T17:49:58.828Z,38.07
2022-11-30T17:52:26.419Z,39.80
2022-11-30T17:54:53.627Z,41.07
2022-11-30T17:57:20.884Z,38.50
2022-11-30T17:59:48.057Z,36.73
2022-11-30T18:02:15.594Z,36.83
2022-11-30T18:04:43.405Z,37.27
2022-11-30T18:07:10.618Z,39.23
2022-11-30T18:09:42.414Z,41.07
2022-11-30T18:12:11.497Z,42.27
2022-11-30T18:14:39.213Z,38.57
2022-11-30T18:17:06.462Z,38.97
2022-11-30T18:19:34.184Z,39.10
2022-11-30T18:22:01.442Z,42.60
2022-11-30T18:24:28.633Z,34.80
2022-11-30T18:26:55.939Z,39.67
2022-11-30T18:29:23.221Z,41.10
2022-11-30T18:31:51.227Z,39.80
2022-11-30T18:34:18.790Z,36.77
2022-11-30T18:36:46.691Z,43.27
2022-11-30T18:39:13.875Z,40.07
2022-11-30T18:41:41.088Z,37.53
2022-11-30T18:44:09.952Z,39.73
2022-11-30T18:46:37.227Z,37.03
2022-11-30T18:49:06.763Z,40.53
2022-11-30T18:51:34.648Z,36.77
2022-11-30T18:54:09.906Z,37.17
2022-11-30T18:56:39.009Z,35.00
2022-11-30T18:59:08.977Z,35.10
2022-11-30T19:01:36.767Z,38.13
2022-11-30T19:04:06.760Z,38.90
2022-11-30T19:06:34.773Z,39.07
2022-11-30T19:09:10.377Z,39.00
2022-11-30T19:11:38.727Z,41.03
2022-11-30T19:14:06.883Z,40.00
2022-11-30T19:16:34.844Z,43.20
2022-11-30T19:19:05.211Z,44.60
2022-11-30T19:21:33.265Z,42.27
2022-11-30T19:24:00.611Z,44.50
2022-11-30T19:26:28.598Z,46.60
2022-11-30T19:28:57.549Z,45.10
2022-11-30T19:31:25.657Z,42.40
2022-11-30T19:33:55.124Z,45.20
2022-11-30T19:36:29.000Z,45.87
2022-11-30T19:38:58.783Z,51.27
2022-11-30T19:41:27.099Z,46.73
2022-11-30T19:44:03.218Z,43.63
2022-11-30T19:46:32.774Z,47.07
2022-11-30T19:49:01.816Z,45.97
2022-11-30T19:51:30.904Z,48.10
2022-11-30T19:54:00.912Z,44.90
2022-11-30T19:56:34.445Z,51.00
2022-11-30T19:59:05.472Z,48.50
2022-11-30T20:01:35.010Z,44.47
2022-11-30T20:04:04.192Z,55.07
2022-11-30T20:06:34.573Z,46.47
2022-11-30T20:09:03.578Z,49.13
2022-11-30T20:11:30.804Z,47.30
2022-11-30T20:14:00.034Z,49.97
2022-11-30T20:16:28.335Z,51.90
2022-11-30T20:18:58.140Z,48.93
2022-11-30T20:21:27.720Z,49.40
2022-11-30T20:23:58.069Z,48.53
2022-11-30T20:26:30.079Z,50.33
2022-11-30T20:28:58.255Z,58.07
2022-11-30T20:31:26.705Z,51.80
2022-11-30T20:33:53.953Z,55.57
2022-11-30T20:36:21.856Z,55.40
2022-11-30T20:38:49.859Z,51.20
2022-11-30T20:41:19.977Z,55.10
2022-11-30T20:43:47.530Z,56.63
2022-11-30T20:46:23.868Z,54.30
2022-11-30T20:48:52.060Z,50.37
2022-11-30T20:51:33.558Z,52.10
2022-11-30T20:54:04.062Z,49.23
2022-11-30T20:56:33.378Z,53.27
2022-11-30T20:59:02.194Z,55.43
2022-11-30T21:01:30.060Z,54.77
2022-11-30T21:03:59.375Z,50.67
2022-11-30T21:06:27.825Z,50.20
2022-11-30T21:08:55.086Z,53.53
2022-11-30T21:11:23.833Z,53.10
2022-11-30T21:13:51.594Z,54.90
2022-11-30T21:16:27.321Z,49.90
2022-11-30T21:18:57.224Z,57.50
2022-11-30T21:21:25.903Z,57.03
2022-11-30T21:23:54.211Z,56.97
2022-11-30T21:26:27.270Z,53.90
2022-11-30T21:28:59.608Z,53.17
2022-11-30T21:31:26.865Z,57.93
2022-11-30T21:33:54.173Z,49.73
2022-11-30T21:36:23.296Z,56.00
2022-11-30T21:39:05.895Z,63.93
2022-11-30T21:41:36.323Z,54.73
2022-11-30T21:44:04.937Z,58.17
2022-11-30T21:46:33.340Z,58.20
2022-11-30T21:49:00.913Z,61.43
2022-11-30T21:51:29.899Z,64.93
2022-11-30T21:54:00.067Z,55.53
2022-11-30T21:56:32.468Z,56.10
2022-11-30T21:59:00.194Z,56.87
2022-11-30T22:01:33.409Z,54.60
2022-11-30T22:04:02.379Z,59.83
2022-11-30T22:06:31.640Z,61.67
2022-11-30T22:09:02.858Z,58.30
2022-11-30T22:11:30.896Z,51.37
2022-11-30T22:13:58.341Z,55.00
2022-11-30T22:16:30.054Z,50.00
2022-11-30T22:19:01.749Z,60.13
2022-11-30T22:21:31.503Z,52.37
2022-11-30T22:24:00.956Z,55.67
2022-11-30T22:26:33.758Z,58.47
2022-11-30T22:29:04.170Z,52.20
2022-11-30T22:31:34.524Z,58.20
2022-11-30T22:34:02.155Z,54.90
2022-11-30T22:36:30.959Z,59.43
2022-11-30T22:39:00.296Z,58.73
2022-11-30T22:41:28.167Z,55.97
2022-11-30T22:43:56.185Z,56.03
2022-11-30T22:46:26.271Z,60.40
2022-11-30T22:48:53.768Z,51.97
2022-11-30T22:51:25.964Z,62.03
2022-11-30T22:53:55.111Z,55.60
2022-11-30T22:56:25.850Z,68.57
2022-11-30T22:58:55.352Z,62.60
2022-11-30T23:01:34.136Z,58.83
2022-11-30T23:04:12.832Z,57.23
2022-11-30T23:06:42.504Z,61.77
2022-11-30T23:09:16.221Z,67.73
2022-11-30T23:11:43.763Z,51.97
2022-11-30T23:14:12.041Z,64.90
2022-11-30T23:16:39.939Z,60.57
2022-11-30T23:19:07.332Z,57.80
2022-11-30T23:21:41.498Z,66.67
2022-11-30T23:24:13.447Z,58.17
2022-11-30T23:26:41.255Z,60.37
2022-11-30T23:29:12.239Z,63.73
2022-11-30T23:31:41.731Z,66.80
2022-11-30T23:34:12.146Z,69.97
2022-11-30T23:36:39.739Z,69.43
2022-11-30T23:39:12.747Z,63.60
2022-11-30T23:41:41.019Z,68.97
2022-11-30T23:44:08.952Z,57.90
2022-11-30T23:46:36.604Z,66.67
2022-11-30T23:49:04.252Z,63.57
2022-11-30T23:51:31.612Z,58.37
2022-11-30T23:53:58.877Z,55.57
2022-11-30T23:56:26.121Z,63.00
2022-11-30T23:58:53.408Z,53.63
